SAA419 FAOR-FAPE
Flight info
| Callsign | SAA419 |
|---|---|
| Flight time | 1h 25m |
| Altitude | 38000 |
| Route | OVALA1B OVALA UZ18 NEVEN UQ8 ALKAT DCT PEV |
| Aircraft | A320/M-SDE3FGHIRWY/LB1 |
Departure
| Time | 2026-05-06 14:26 |
|---|---|
| Airport | O.R. Tambo International Airport (FAOR) |
Arrival
| Time | 2026-05-06 15:51 |
|---|---|
| Airport | Chief Dawid Stuurman International Airport (FAPE) |
| Time | Latitude | Longitude | Altitude | Speed | Heading |
|---|---|---|---|---|---|
| 2026-05-06 13:54 | -26.13686 | 28.23149 | 5547 ft | 0 kts | 6° |
| 2026-05-06 14:13 | -26.13691 | 28.23148 | 5551 ft | 3 kts | 7° |
| 2026-05-06 14:13 | -26.13717 | 28.23143 | 5548 ft | 4 kts | 18° |
| 2026-05-06 14:13 | -26.13740 | 28.23130 | 5548 ft | 4 kts | 54° |
| 2026-05-06 14:14 | -26.13746 | 28.23115 | 5549 ft | 0 kts | 96° |
| 2026-05-06 14:17 | -26.13747 | 28.23120 | 5548 ft | 3 kts | 96° |
| 2026-05-06 14:17 | -26.13753 | 28.23189 | 5547 ft | 15 kts | 96° |
| 2026-05-06 14:17 | -26.13763 | 28.23318 | 5547 ft | 17 kts | 92° |
| 2026-05-06 14:17 | -26.13787 | 28.23446 | 5552 ft | 16 kts | 107° |
| 2026-05-06 14:18 | -26.13856 | 28.23476 | 5557 ft | 11 kts | 195° |
| 2026-05-06 14:18 | -26.13951 | 28.23447 | 5558 ft | 17 kts | 196° |
| 2026-05-06 14:18 | -26.14088 | 28.23404 | 5561 ft | 22 kts | 196° |
| 2026-05-06 14:18 | -26.14236 | 28.23358 | 5562 ft | 22 kts | 195° |
| 2026-05-06 14:19 | -26.14378 | 28.23313 | 5564 ft | 21 kts | 197° |
| 2026-05-06 14:19 | -26.14512 | 28.23275 | 5564 ft | 19 kts | 187° |
| 2026-05-06 14:19 | -26.14594 | 28.23308 | 5563 ft | 7 kts | 117° |
| 2026-05-06 14:19 | -26.14595 | 28.23312 | 5563 ft | 0 kts | 109° |
| 2026-05-06 14:21 | -26.14600 | 28.23328 | 5564 ft | 7 kts | 109° |
| 2026-05-06 14:21 | -26.14622 | 28.23414 | 5562 ft | 14 kts | 101° |
| 2026-05-06 14:21 | -26.14593 | 28.23454 | 5562 ft | 0 kts | 17° |
| 2026-05-06 14:25 | -26.14579 | 28.23459 | 5562 ft | 9 kts | 16° |
| 2026-05-06 14:25 | -26.14225 | 28.23565 | 5564 ft | 95 kts | 16° |
| 2026-05-06 14:25 | -26.13352 | 28.23835 | 5544 ft | 163 kts | 15° |
| 2026-05-06 14:25 | -26.12104 | 28.24232 | 5726 ft | 200 kts | 11° |
| 2026-05-06 14:26 | -26.10802 | 28.24699 | 6821 ft | 194 kts | 12° |
| 2026-05-06 14:26 | -26.09512 | 28.25170 | 7705 ft | 199 kts | 12° |
| 2026-05-06 14:26 | -26.08118 | 28.25685 | 8259 ft | 224 kts | 13° |
| 2026-05-06 14:26 | -26.06560 | 28.26255 | 8787 ft | 248 kts | 15° |
| 2026-05-06 14:27 | -26.05004 | 28.27295 | 9162 ft | 280 kts | 44° |
| 2026-05-06 14:27 | -26.04052 | 28.29272 | 9619 ft | 304 kts | 78° |
| 2026-05-06 14:27 | -26.04159 | 28.31606 | 10217 ft | 318 kts | 108° |
| 2026-05-06 14:27 | -26.05315 | 28.33757 | 10474 ft | 336 kts | 139° |
| 2026-05-06 14:28 | -26.07328 | 28.35071 | 10888 ft | 339 kts | 169° |
| 2026-05-06 14:28 | -26.09648 | 28.35187 | 11486 ft | 334 kts | 195° |
| 2026-05-06 14:28 | -26.11879 | 28.34508 | 12180 ft | 332 kts | 206° |
| 2026-05-06 14:28 | -26.14051 | 28.33602 | 12936 ft | 335 kts | 208° |
| 2026-05-06 14:29 | -26.16242 | 28.32675 | 13687 ft | 338 kts | 208° |
| 2026-05-06 14:29 | -26.18465 | 28.31771 | 14357 ft | 344 kts | 205° |
| 2026-05-06 14:29 | -26.20815 | 28.31081 | 14932 ft | 354 kts | 200° |
| 2026-05-06 14:29 | -26.23260 | 28.30560 | 15519 ft | 361 kts | 198° |
| 2026-05-06 14:30 | -26.25764 | 28.30119 | 16096 ft | 367 kts | 197° |
| 2026-05-06 14:30 | -26.28310 | 28.29692 | 16668 ft | 372 kts | 197° |
| 2026-05-06 14:30 | -26.30880 | 28.29240 | 17259 ft | 377 kts | 198° |
| 2026-05-06 14:30 | -26.33481 | 28.28752 | 17852 ft | 380 kts | 199° |
| 2026-05-06 14:31 | -26.36101 | 28.28235 | 18428 ft | 385 kts | 199° |
| 2026-05-06 14:31 | -26.38749 | 28.27693 | 18936 ft | 389 kts | 200° |
| 2026-05-06 14:31 | -26.41426 | 28.27132 | 19446 ft | 394 kts | 200° |
| 2026-05-06 14:31 | -26.44137 | 28.26562 | 19951 ft | 399 kts | 200° |
| 2026-05-06 14:32 | -26.46848 | 28.25991 | 20447 ft | 404 kts | 201° |
| 2026-05-06 14:32 | -26.49632 | 28.25409 | 20941 ft | 409 kts | 201° |
| 2026-05-06 14:32 | -26.52451 | 28.24827 | 21418 ft | 415 kts | 201° |
| 2026-05-06 14:32 | -26.55310 | 28.24239 | 21868 ft | 420 kts | 201° |
| 2026-05-06 14:33 | -26.58201 | 28.23648 | 22362 ft | 425 kts | 202° |
| 2026-05-06 14:33 | -26.61125 | 28.23048 | 22825 ft | 430 kts | 202° |
| 2026-05-06 14:33 | -26.64085 | 28.22439 | 23279 ft | 435 kts | 202° |
| 2026-05-06 14:33 | -26.67074 | 28.21820 | 23717 ft | 439 kts | 203° |
| 2026-05-06 14:34 | -26.70092 | 28.21190 | 24146 ft | 443 kts | 202° |
| 2026-05-06 14:34 | -26.73127 | 28.20560 | 24614 ft | 445 kts | 202° |
| 2026-05-06 14:34 | -26.76174 | 28.19935 | 25091 ft | 446 kts | 202° |
| 2026-05-06 14:34 | -26.79236 | 28.19309 | 25562 ft | 448 kts | 201° |
| 2026-05-06 14:35 | -26.82304 | 28.18679 | 26007 ft | 449 kts | 201° |
| 2026-05-06 14:35 | -26.85386 | 28.18042 | 26455 ft | 451 kts | 201° |
| 2026-05-06 14:35 | -26.88480 | 28.17401 | 26880 ft | 453 kts | 201° |
| 2026-05-06 14:35 | -26.91584 | 28.16753 | 27290 ft | 455 kts | 201° |
| 2026-05-06 14:36 | -26.94705 | 28.16100 | 27688 ft | 457 kts | 201° |
| 2026-05-06 14:36 | -26.97843 | 28.15444 | 28080 ft | 460 kts | 201° |
| 2026-05-06 14:36 | -27.00994 | 28.14787 | 28463 ft | 462 kts | 201° |
| 2026-05-06 14:36 | -27.04167 | 28.14127 | 28844 ft | 465 kts | 201° |
| 2026-05-06 14:37 | -27.07360 | 28.13463 | 29209 ft | 468 kts | 201° |
| 2026-05-06 14:37 | -27.10573 | 28.12795 | 29572 ft | 471 kts | 201° |
| 2026-05-06 14:37 | -27.13806 | 28.12124 | 29931 ft | 474 kts | 201° |
| 2026-05-06 14:37 | -27.17065 | 28.11448 | 30233 ft | 478 kts | 201° |
| 2026-05-06 14:38 | -27.20340 | 28.10766 | 30528 ft | 480 kts | 201° |
| 2026-05-06 14:38 | -27.23637 | 28.10075 | 30809 ft | 483 kts | 201° |
| 2026-05-06 14:38 | -27.26906 | 28.09388 | 31086 ft | 486 kts | 201° |
| 2026-05-06 14:38 | -27.30238 | 28.08689 | 31409 ft | 487 kts | 201° |
| 2026-05-06 14:39 | -27.33567 | 28.07995 | 31821 ft | 486 kts | 201° |
| 2026-05-06 14:39 | -27.36892 | 28.07305 | 32228 ft | 486 kts | 201° |
| 2026-05-06 14:39 | -27.40214 | 28.06616 | 32620 ft | 485 kts | 200° |
| 2026-05-06 14:39 | -27.43531 | 28.05926 | 33040 ft | 484 kts | 200° |
| 2026-05-06 14:40 | -27.46843 | 28.05232 | 33461 ft | 483 kts | 201° |
| 2026-05-06 14:40 | -27.50064 | 28.04318 | 33857 ft | 473 kts | 208° |
| 2026-05-06 14:40 | -27.53204 | 28.03207 | 34205 ft | 472 kts | 207° |
| 2026-05-06 14:40 | -27.56336 | 28.02098 | 34533 ft | 472 kts | 207° |
| 2026-05-06 14:41 | -27.59464 | 28.00994 | 34868 ft | 471 kts | 207° |
| 2026-05-06 14:41 | -27.62586 | 27.99894 | 35200 ft | 469 kts | 207° |
| 2026-05-06 14:41 | -27.65697 | 27.98796 | 35527 ft | 468 kts | 207° |
| 2026-05-06 14:41 | -27.68800 | 27.97700 | 35851 ft | 467 kts | 207° |
| 2026-05-06 14:42 | -27.71892 | 27.96605 | 36160 ft | 465 kts | 207° |
| 2026-05-06 14:42 | -27.74978 | 27.95513 | 36466 ft | 464 kts | 206° |
| 2026-05-06 14:42 | -27.78056 | 27.94426 | 36755 ft | 463 kts | 206° |
| 2026-05-06 14:42 | -27.81127 | 27.93341 | 37040 ft | 462 kts | 206° |
| 2026-05-06 14:43 | -27.84185 | 27.92258 | 37314 ft | 460 kts | 206° |
| 2026-05-06 14:43 | -27.87239 | 27.91172 | 37574 ft | 459 kts | 206° |
| 2026-05-06 14:43 | -27.90282 | 27.90090 | 37836 ft | 458 kts | 206° |
| 2026-05-06 14:43 | -27.93325 | 27.89011 | 37967 ft | 458 kts | 206° |
| 2026-05-06 14:44 | -27.99367 | 27.86860 | 37985 ft | 458 kts | 206° |
| 2026-05-06 14:45 | -28.08453 | 27.83532 | 37979 ft | 457 kts | 206° |
| 2026-05-06 14:45 | -28.14497 | 27.81281 | 37973 ft | 457 kts | 206° |
| 2026-05-06 14:46 | -28.20554 | 27.79042 | 37982 ft | 458 kts | 206° |
| 2026-05-06 14:46 | -28.26616 | 27.76805 | 37980 ft | 458 kts | 206° |
| 2026-05-06 14:47 | -28.32678 | 27.74565 | 37984 ft | 458 kts | 206° |
| 2026-05-06 14:47 | -28.38744 | 27.72324 | 37990 ft | 458 kts | 206° |
| 2026-05-06 14:48 | -28.44801 | 27.70073 | 37992 ft | 458 kts | 206° |
| 2026-05-06 14:48 | -28.50857 | 27.67819 | 37998 ft | 458 kts | 206° |
| 2026-05-06 14:49 | -28.56911 | 27.65570 | 37997 ft | 458 kts | 205° |
| 2026-05-06 14:49 | -28.62965 | 27.63320 | 37998 ft | 457 kts | 206° |
| 2026-05-06 14:50 | -28.68968 | 27.61077 | 38002 ft | 457 kts | 206° |
| 2026-05-06 14:50 | -28.75012 | 27.58820 | 38002 ft | 457 kts | 205° |
| 2026-05-06 14:51 | -28.81055 | 27.56568 | 37996 ft | 457 kts | 205° |
| 2026-05-06 14:51 | -28.87093 | 27.54312 | 37999 ft | 457 kts | 205° |
| 2026-05-06 14:52 | -28.93129 | 27.52051 | 37994 ft | 456 kts | 206° |
| 2026-05-06 14:52 | -28.99165 | 27.49784 | 37997 ft | 457 kts | 206° |
| 2026-05-06 14:53 | -29.05203 | 27.47513 | 37998 ft | 457 kts | 206° |
| 2026-05-06 14:53 | -29.11244 | 27.45249 | 37997 ft | 457 kts | 206° |
| 2026-05-06 14:54 | -29.17296 | 27.42977 | 38005 ft | 457 kts | 206° |
| 2026-05-06 14:54 | -29.23341 | 27.40692 | 38018 ft | 458 kts | 206° |
| 2026-05-06 14:55 | -29.29394 | 27.38402 | 38027 ft | 458 kts | 206° |
| 2026-05-06 14:55 | -29.35447 | 27.36117 | 38018 ft | 458 kts | 205° |
| 2026-05-06 14:56 | -29.41506 | 27.33834 | 38036 ft | 458 kts | 205° |
| 2026-05-06 14:56 | -29.47561 | 27.31540 | 38020 ft | 458 kts | 206° |
| 2026-05-06 14:57 | -29.53621 | 27.29238 | 38010 ft | 458 kts | 205° |
| 2026-05-06 14:57 | -29.59677 | 27.26942 | 37997 ft | 458 kts | 205° |
| 2026-05-06 14:58 | -29.64708 | 27.25033 | 37978 ft | 458 kts | 205° |
| 2026-05-06 14:58 | -29.70755 | 27.22732 | 37967 ft | 458 kts | 205° |
| 2026-05-06 14:59 | -29.76803 | 27.20429 | 37961 ft | 458 kts | 205° |
| 2026-05-06 14:59 | -29.82852 | 27.18115 | 37954 ft | 458 kts | 205° |
| 2026-05-06 15:00 | -29.88903 | 27.15809 | 37952 ft | 458 kts | 205° |
| 2026-05-06 15:00 | -29.94943 | 27.13498 | 37947 ft | 458 kts | 205° |
| 2026-05-06 15:01 | -30.00987 | 27.11178 | 37945 ft | 457 kts | 205° |
| 2026-05-06 15:01 | -30.07026 | 27.08862 | 37933 ft | 457 kts | 205° |
| 2026-05-06 15:02 | -30.13064 | 27.06550 | 37928 ft | 457 kts | 204° |
| 2026-05-06 15:02 | -30.19055 | 27.04245 | 37927 ft | 457 kts | 204° |
| 2026-05-06 15:03 | -30.25087 | 27.01920 | 37918 ft | 457 kts | 204° |
| 2026-05-06 15:03 | -30.31122 | 26.99601 | 37910 ft | 457 kts | 204° |
| 2026-05-06 15:04 | -30.37154 | 26.97276 | 37905 ft | 457 kts | 204° |
| 2026-05-06 15:04 | -30.43178 | 26.94943 | 37904 ft | 457 kts | 204° |
| 2026-05-06 15:05 | -30.49204 | 26.92604 | 37904 ft | 457 kts | 204° |
| 2026-05-06 15:05 | -30.55234 | 26.90271 | 37898 ft | 457 kts | 204° |
| 2026-05-06 15:06 | -30.61259 | 26.87934 | 37894 ft | 457 kts | 204° |
| 2026-05-06 15:06 | -30.67292 | 26.85590 | 37889 ft | 457 kts | 204° |
| 2026-05-06 15:07 | -30.73328 | 26.83238 | 37890 ft | 458 kts | 204° |
| 2026-05-06 15:07 | -30.79331 | 26.80902 | 37894 ft | 458 kts | 203° |
| 2026-05-06 15:08 | -30.85373 | 26.78552 | 37897 ft | 458 kts | 203° |
| 2026-05-06 15:08 | -30.91418 | 26.76191 | 37894 ft | 458 kts | 203° |
| 2026-05-06 15:09 | -30.97457 | 26.73831 | 37895 ft | 458 kts | 203° |
| 2026-05-06 15:09 | -31.03493 | 26.71467 | 37896 ft | 457 kts | 203° |
| 2026-05-06 15:10 | -31.09521 | 26.69101 | 37896 ft | 457 kts | 202° |
| 2026-05-06 15:10 | -31.15546 | 26.66741 | 37891 ft | 456 kts | 202° |
| 2026-05-06 15:11 | -31.21562 | 26.64379 | 37889 ft | 456 kts | 202° |
| 2026-05-06 15:11 | -31.27570 | 26.62016 | 37882 ft | 455 kts | 202° |
| 2026-05-06 15:12 | -31.33571 | 26.59647 | 37875 ft | 455 kts | 202° |
| 2026-05-06 15:12 | -31.39568 | 26.57283 | 37868 ft | 455 kts | 202° |
| 2026-05-06 15:13 | -31.45520 | 26.54928 | 37861 ft | 454 kts | 202° |
| 2026-05-06 15:13 | -31.51506 | 26.52563 | 37856 ft | 453 kts | 202° |
| 2026-05-06 15:14 | -31.57477 | 26.50201 | 37845 ft | 453 kts | 202° |
| 2026-05-06 15:14 | -31.63440 | 26.47831 | 37837 ft | 452 kts | 202° |
| 2026-05-06 15:15 | -31.69198 | 26.45533 | 37827 ft | 451 kts | 202° |
| 2026-05-06 15:15 | -31.75133 | 26.43178 | 37819 ft | 450 kts | 201° |
| 2026-05-06 15:16 | -31.81068 | 26.40820 | 37811 ft | 450 kts | 201° |
| 2026-05-06 15:16 | -31.86986 | 26.38452 | 37802 ft | 449 kts | 202° |
| 2026-05-06 15:17 | -31.92893 | 26.36086 | 37802 ft | 448 kts | 201° |
| 2026-05-06 15:17 | -31.98792 | 26.33724 | 37801 ft | 447 kts | 201° |
| 2026-05-06 15:18 | -32.04640 | 26.31382 | 37798 ft | 446 kts | 201° |
| 2026-05-06 15:18 | -32.10521 | 26.29029 | 37610 ft | 446 kts | 201° |
| 2026-05-06 15:18 | -32.13493 | 26.27836 | 36513 ft | 457 kts | 201° |
| 2026-05-06 15:19 | -32.16515 | 26.26620 | 35827 ft | 458 kts | 200° |
| 2026-05-06 15:19 | -32.19510 | 26.25418 | 35412 ft | 452 kts | 200° |
| 2026-05-06 15:19 | -32.22469 | 26.24226 | 34933 ft | 448 kts | 200° |
| 2026-05-06 15:19 | -32.25412 | 26.23033 | 34456 ft | 445 kts | 200° |
| 2026-05-06 15:20 | -32.28329 | 26.21852 | 33970 ft | 442 kts | 200° |
| 2026-05-06 15:20 | -32.31234 | 26.20680 | 33443 ft | 440 kts | 199° |
| 2026-05-06 15:20 | -32.34115 | 26.19519 | 32945 ft | 435 kts | 199° |
| 2026-05-06 15:20 | -32.36969 | 26.18370 | 32458 ft | 431 kts | 199° |
| 2026-05-06 15:21 | -32.39788 | 26.17230 | 31981 ft | 427 kts | 199° |
| 2026-05-06 15:21 | -32.42584 | 26.16100 | 31514 ft | 422 kts | 199° |
| 2026-05-06 15:21 | -32.45351 | 26.14980 | 31056 ft | 418 kts | 199° |
| 2026-05-06 15:21 | -32.48087 | 26.13872 | 30605 ft | 413 kts | 198° |
| 2026-05-06 15:22 | -32.50791 | 26.12778 | 30161 ft | 408 kts | 198° |
| 2026-05-06 15:22 | -32.53467 | 26.11696 | 29724 ft | 404 kts | 198° |
| 2026-05-06 15:22 | -32.56110 | 26.10624 | 29261 ft | 399 kts | 198° |
| 2026-05-06 15:22 | -32.58712 | 26.09563 | 28856 ft | 392 kts | 198° |
| 2026-05-06 15:23 | -32.61274 | 26.08520 | 28461 ft | 387 kts | 198° |
| 2026-05-06 15:23 | -32.63802 | 26.07493 | 28084 ft | 381 kts | 198° |
| 2026-05-06 15:23 | -32.66266 | 26.06493 | 27699 ft | 377 kts | 198° |
| 2026-05-06 15:23 | -32.68739 | 26.05489 | 27321 ft | 374 kts | 198° |
| 2026-05-06 15:24 | -32.71188 | 26.04489 | 26941 ft | 371 kts | 198° |
| 2026-05-06 15:24 | -32.73621 | 26.03494 | 26544 ft | 368 kts | 198° |
| 2026-05-06 15:24 | -32.76041 | 26.02508 | 26151 ft | 366 kts | 197° |
| 2026-05-06 15:24 | -32.78446 | 26.01530 | 25761 ft | 364 kts | 197° |
| 2026-05-06 15:25 | -32.80839 | 26.00555 | 25358 ft | 363 kts | 197° |
| 2026-05-06 15:25 | -32.83223 | 25.99582 | 24951 ft | 361 kts | 197° |
| 2026-05-06 15:25 | -32.85594 | 25.98613 | 24552 ft | 360 kts | 197° |
| 2026-05-06 15:25 | -32.87964 | 25.97646 | 24129 ft | 359 kts | 197° |
| 2026-05-06 15:26 | -32.90322 | 25.96686 | 23710 ft | 357 kts | 197° |
| 2026-05-06 15:26 | -32.92672 | 25.95727 | 23300 ft | 357 kts | 197° |
| 2026-05-06 15:26 | -32.95012 | 25.94770 | 22825 ft | 355 kts | 197° |
| 2026-05-06 15:26 | -32.97340 | 25.93820 | 22409 ft | 351 kts | 197° |
| 2026-05-06 15:27 | -32.99638 | 25.92882 | 21992 ft | 348 kts | 197° |
| 2026-05-06 15:27 | -33.01916 | 25.91950 | 21584 ft | 344 kts | 197° |
| 2026-05-06 15:27 | -33.04165 | 25.91029 | 21173 ft | 340 kts | 197° |
| 2026-05-06 15:27 | -33.06380 | 25.90119 | 20963 ft | 331 kts | 197° |
| 2026-05-06 15:28 | -33.08523 | 25.89239 | 20818 ft | 321 kts | 197° |
| 2026-05-06 15:28 | -33.10599 | 25.88386 | 20685 ft | 310 kts | 197° |
| 2026-05-06 15:28 | -33.12610 | 25.87559 | 20556 ft | 301 kts | 197° |
| 2026-05-06 15:28 | -33.14560 | 25.86756 | 20422 ft | 292 kts | 196° |
| 2026-05-06 15:29 | -33.16428 | 25.85986 | 20294 ft | 284 kts | 196° |
| 2026-05-06 15:29 | -33.18274 | 25.85230 | 20082 ft | 278 kts | 195° |
| 2026-05-06 15:29 | -33.20120 | 25.84575 | 19815 ft | 275 kts | 193° |
| 2026-05-06 15:29 | -33.21966 | 25.84011 | 19515 ft | 273 kts | 192° |
| 2026-05-06 15:30 | -33.23811 | 25.83480 | 19214 ft | 272 kts | 191° |
| 2026-05-06 15:30 | -33.25644 | 25.82957 | 18920 ft | 270 kts | 192° |
| 2026-05-06 15:30 | -33.27467 | 25.82430 | 18628 ft | 269 kts | 192° |
| 2026-05-06 15:30 | -33.29282 | 25.81898 | 18327 ft | 268 kts | 192° |
| 2026-05-06 15:31 | -33.31089 | 25.81362 | 18055 ft | 267 kts | 192° |
| 2026-05-06 15:31 | -33.32886 | 25.80822 | 17745 ft | 266 kts | 192° |
| 2026-05-06 15:31 | -33.34675 | 25.80280 | 17422 ft | 265 kts | 193° |
| 2026-05-06 15:32 | -33.38228 | 25.79203 | 16807 ft | 262 kts | 193° |
| 2026-05-06 15:32 | -33.39989 | 25.78667 | 16497 ft | 261 kts | 193° |
| 2026-05-06 15:32 | -33.41745 | 25.78134 | 16197 ft | 259 kts | 193° |
| 2026-05-06 15:32 | -33.43485 | 25.77606 | 15885 ft | 258 kts | 193° |
| 2026-05-06 15:33 | -33.45220 | 25.77077 | 15602 ft | 256 kts | 193° |
| 2026-05-06 15:33 | -33.46924 | 25.76560 | 15316 ft | 255 kts | 193° |
| 2026-05-06 15:33 | -33.48636 | 25.76040 | 15034 ft | 253 kts | 193° |
| 2026-05-06 15:33 | -33.50342 | 25.75520 | 14751 ft | 252 kts | 193° |
| 2026-05-06 15:34 | -33.52038 | 25.75002 | 14472 ft | 251 kts | 193° |
| 2026-05-06 15:34 | -33.53727 | 25.74488 | 14196 ft | 250 kts | 193° |
| 2026-05-06 15:34 | -33.55408 | 25.73978 | 13923 ft | 249 kts | 193° |
| 2026-05-06 15:34 | -33.57080 | 25.73473 | 13641 ft | 247 kts | 193° |
| 2026-05-06 15:35 | -33.58747 | 25.72968 | 13368 ft | 246 kts | 193° |
| 2026-05-06 15:35 | -33.60407 | 25.72464 | 13064 ft | 246 kts | 193° |
| 2026-05-06 15:35 | -33.61976 | 25.71699 | 12750 ft | 246 kts | 215° |
| 2026-05-06 15:35 | -33.63076 | 25.70117 | 12445 ft | 252 kts | 237° |
| 2026-05-06 15:36 | -33.63869 | 25.68236 | 12133 ft | 253 kts | 240° |
| 2026-05-06 15:36 | -33.64615 | 25.66325 | 11822 ft | 252 kts | 240° |
| 2026-05-06 15:36 | -33.65349 | 25.64415 | 11533 ft | 252 kts | 240° |
| 2026-05-06 15:36 | -33.66068 | 25.62535 | 11265 ft | 250 kts | 240° |
| 2026-05-06 15:37 | -33.66787 | 25.60636 | 10976 ft | 250 kts | 240° |
| 2026-05-06 15:37 | -33.67498 | 25.58741 | 10701 ft | 249 kts | 240° |
| 2026-05-06 15:37 | -33.68201 | 25.56850 | 10430 ft | 247 kts | 240° |
| 2026-05-06 15:37 | -33.68896 | 25.54962 | 10169 ft | 246 kts | 240° |
| 2026-05-06 15:38 | -33.69581 | 25.53086 | 9909 ft | 245 kts | 240° |
| 2026-05-06 15:38 | -33.70255 | 25.51213 | 9651 ft | 244 kts | 240° |
| 2026-05-06 15:38 | -33.70919 | 25.49343 | 9369 ft | 243 kts | 240° |
| 2026-05-06 15:38 | -33.71575 | 25.47473 | 9067 ft | 242 kts | 240° |
| 2026-05-06 15:39 | -33.72221 | 25.45614 | 8791 ft | 240 kts | 240° |
| 2026-05-06 15:39 | -33.72857 | 25.43763 | 8494 ft | 240 kts | 240° |
| 2026-05-06 15:39 | -33.73486 | 25.41913 | 8202 ft | 239 kts | 240° |
| 2026-05-06 15:39 | -33.74149 | 25.40104 | 7963 ft | 230 kts | 230° |
| 2026-05-06 15:40 | -33.75175 | 25.38765 | 7835 ft | 209 kts | 208° |
| 2026-05-06 15:40 | -33.76456 | 25.38085 | 7563 ft | 201 kts | 187° |
| 2026-05-06 15:40 | -33.77819 | 25.38084 | 7353 ft | 192 kts | 168° |
| 2026-05-06 15:40 | -33.79100 | 25.38474 | 7090 ft | 189 kts | 166° |
| 2026-05-06 15:41 | -33.80343 | 25.38857 | 6959 ft | 180 kts | 166° |
| 2026-05-06 15:41 | -33.81527 | 25.39223 | 6830 ft | 171 kts | 166° |
| 2026-05-06 15:41 | -33.82651 | 25.39571 | 6707 ft | 162 kts | 166° |
| 2026-05-06 15:41 | -33.83704 | 25.39896 | 6550 ft | 155 kts | 166° |
| 2026-05-06 15:42 | -33.84762 | 25.40109 | 6302 ft | 154 kts | 174° |
| 2026-05-06 15:42 | -33.85831 | 25.40200 | 6042 ft | 154 kts | 174° |
| 2026-05-06 15:42 | -33.86893 | 25.40256 | 5759 ft | 153 kts | 175° |
| 2026-05-06 15:42 | -33.87945 | 25.40297 | 5454 ft | 150 kts | 175° |
| 2026-05-06 15:43 | -33.88993 | 25.40326 | 5166 ft | 150 kts | 175° |
| 2026-05-06 15:43 | -33.90027 | 25.40342 | 4957 ft | 147 kts | 175° |
| 2026-05-06 15:43 | -33.91046 | 25.40352 | 4690 ft | 146 kts | 175° |
| 2026-05-06 15:43 | -33.92039 | 25.40349 | 4540 ft | 138 kts | 175° |
| 2026-05-06 15:44 | -33.92972 | 25.40427 | 4354 ft | 131 kts | 167° |
| 2026-05-06 15:44 | -33.93858 | 25.40615 | 4057 ft | 129 kts | 165° |
| 2026-05-06 15:44 | -33.94733 | 25.40821 | 3698 ft | 128 kts | 165° |
| 2026-05-06 15:44 | -33.95596 | 25.41072 | 3362 ft | 127 kts | 161° |
| 2026-05-06 15:45 | -33.96428 | 25.41386 | 3108 ft | 121 kts | 160° |
| 2026-05-06 15:45 | -33.97204 | 25.41681 | 2949 ft | 114 kts | 160° |
| 2026-05-06 15:45 | -33.97951 | 25.41960 | 2730 ft | 111 kts | 160° |
| 2026-05-06 15:45 | -33.98687 | 25.42233 | 2477 ft | 110 kts | 160° |
| 2026-05-06 15:46 | -33.99412 | 25.42525 | 2336 ft | 110 kts | 155° |
| 2026-05-06 15:46 | -34.00093 | 25.42963 | 2295 ft | 110 kts | 150° |
| 2026-05-06 15:46 | -34.00749 | 25.43435 | 2312 ft | 114 kts | 150° |
| 2026-05-06 15:46 | -34.01418 | 25.43921 | 2293 ft | 111 kts | 150° |
| 2026-05-06 15:47 | -34.02078 | 25.44402 | 2295 ft | 110 kts | 150° |
| 2026-05-06 15:47 | -34.02770 | 25.44905 | 2329 ft | 121 kts | 150° |
| 2026-05-06 15:47 | -34.03495 | 25.45431 | 2325 ft | 122 kts | 150° |
| 2026-05-06 15:47 | -34.04221 | 25.45956 | 2328 ft | 121 kts | 150° |
| 2026-05-06 15:48 | -34.04924 | 25.46520 | 2323 ft | 123 kts | 140° |
| 2026-05-06 15:48 | -34.05362 | 25.47430 | 2328 ft | 134 kts | 116° |
| 2026-05-06 15:48 | -34.05265 | 25.48630 | 2299 ft | 163 kts | 78° |
| 2026-05-06 15:48 | -34.04600 | 25.49810 | 2133 ft | 168 kts | 75° |
| 2026-05-06 15:49 | -34.04005 | 25.51013 | 1945 ft | 167 kts | 76° |
| 2026-05-06 15:49 | -34.03406 | 25.52195 | 1762 ft | 158 kts | 76° |
| 2026-05-06 15:49 | -34.02854 | 25.53262 | 1533 ft | 145 kts | 78° |
| 2026-05-06 15:49 | -34.02335 | 25.54274 | 1348 ft | 140 kts | 78° |
| 2026-05-06 15:50 | -34.01829 | 25.55263 | 1159 ft | 138 kts | 78° |
| 2026-05-06 15:50 | -34.01320 | 25.56254 | 980 ft | 140 kts | 70° |
| 2026-05-06 15:50 | -34.00806 | 25.57251 | 809 ft | 140 kts | 68° |
| 2026-05-06 15:50 | -34.00290 | 25.58249 | 627 ft | 141 kts | 61° |
| 2026-05-06 15:51 | -33.99773 | 25.59247 | 429 ft | 140 kts | 59° |
| 2026-05-06 15:51 | -33.99268 | 25.60241 | 240 ft | 134 kts | 58° |
| 2026-05-06 15:51 | -33.98833 | 25.61074 | 217 ft | 90 kts | 58° |
| 2026-05-06 15:51 | -33.98649 | 25.61427 | 212 ft | 19 kts | 58° |
| 2026-05-06 15:52 | -33.98629 | 25.61465 | 212 ft | 11 kts | 58° |
| 2026-05-06 15:52 | -33.98536 | 25.61643 | 213 ft | 23 kts | 57° |
| 2026-05-06 15:52 | -33.98470 | 25.61702 | 216 ft | 10 kts | 331° |
| 2026-05-06 15:52 | -33.98405 | 25.61648 | 211 ft | 13 kts | 327° |
| 2026-05-06 15:53 | -33.98353 | 25.61579 | 215 ft | 10 kts | 265° |
| 2026-05-06 15:53 | -33.98396 | 25.61506 | 211 ft | 12 kts | 237° |
| 2026-05-06 15:53 | -33.98433 | 25.61410 | 217 ft | 14 kts | 249° |
| 2026-05-06 15:53 | -33.98465 | 25.61336 | 212 ft | 7 kts | 237° |
| 2026-05-06 15:54 | -33.98485 | 25.61297 | 215 ft | 4 kts | 238° |
| 2026-05-06 15:54 | -33.98500 | 25.61261 | 214 ft | 6 kts | 261° |
| 2026-05-06 15:54 | -33.98485 | 25.61240 | 216 ft | 6 kts | 330° |
| 2026-05-06 15:54 | -33.98457 | 25.61220 | 215 ft | 2 kts | 328° |
| 2026-05-06 15:55 | -33.98456 | 25.61219 | 215 ft | 0 kts | 328° |